createdAt,value
2019-02-07T00:01:30.458Z,33.93
2019-02-07T00:03:58.535Z,34.53
2019-02-07T00:06:26.677Z,29.63
2019-02-07T00:08:54.738Z,30.10
2019-02-07T00:11:22.793Z,29.83
2019-02-07T00:13:50.847Z,31.50
2019-02-07T00:16:18.902Z,30.70
2019-02-07T00:18:46.958Z,32.75
2019-02-07T00:21:15.014Z,32.40
2019-02-07T00:23:43.084Z,32.27
2019-02-07T00:26:11.402Z,31.80
2019-02-07T00:28:39.464Z,33.10
2019-02-07T00:31:07.526Z,30.83
2019-02-07T00:33:35.850Z,35.33
2019-02-07T00:36:04.203Z,33.70
2019-02-07T00:38:32.266Z,35.27
2019-02-07T00:41:00.334Z,30.50
2019-02-07T00:43:28.390Z,34.53
2019-02-07T00:45:56.450Z,30.63
2019-02-07T00:48:24.518Z,30.77
2019-02-07T00:50:52.566Z,33.67
2019-02-07T00:53:20.942Z,30.17
2019-02-07T00:55:48.987Z,32.97
2019-02-07T00:58:17.043Z,38.13
2019-02-07T01:00:45.114Z,36.00
2019-02-07T01:03:13.246Z,36.28
2019-02-07T01:05:41.686Z,34.18
2019-02-07T01:08:09.946Z,35.50
2019-02-07T01:10:38.162Z,40.90
2019-02-07T01:13:06.280Z,36.73
2019-02-07T01:15:34.406Z,35.50
2019-02-07T01:18:02.461Z,31.63
2019-02-07T01:20:30.594Z,34.78
2019-02-07T01:22:58.949Z,34.00
2019-02-07T01:25:27.002Z,33.63
2019-02-07T01:27:55.136Z,34.93
2019-02-07T01:30:24.361Z,33.57
2019-02-07T01:32:52.679Z,33.77
2019-02-07T01:35:20.768Z,31.87
2019-02-07T01:37:49.833Z,36.53
2019-02-07T01:40:18.763Z,30.70
2019-02-07T01:42:46.812Z,35.47
2019-02-07T01:45:16.335Z,33.23
2019-02-07T01:47:44.506Z,32.17
2019-02-07T01:50:13.826Z,32.97
2019-02-07T01:52:41.986Z,30.20
2019-02-07T01:55:10.698Z,36.27
2019-02-07T01:57:38.861Z,36.80
2019-02-07T02:00:10.276Z,35.00
2019-02-07T02:02:38.338Z,32.87
2019-02-07T02:05:07.560Z,35.30
2019-02-07T02:07:35.612Z,36.87
2019-02-07T02:10:05.595Z,32.37
2019-02-07T02:12:33.678Z,32.77
2019-02-07T02:15:01.754Z,33.80
2019-02-07T02:17:29.813Z,34.27
2019-02-07T02:19:57.874Z,36.73
2019-02-07T02:22:25.935Z,35.90
2019-02-07T02:24:53.990Z,34.15
2019-02-07T02:27:22.078Z,36.60
2019-02-07T02:29:50.134Z,34.73
2019-02-07T02:32:18.184Z,35.13
2019-02-07T02:34:46.244Z,35.93
2019-02-07T02:37:14.298Z,40.40
2019-02-07T02:39:43.228Z,37.03
2019-02-07T02:42:11.335Z,35.58
2019-02-07T02:44:39.479Z,34.00
2019-02-07T02:47:08.107Z,39.30
2019-02-07T02:49:36.160Z,36.50
2019-02-07T02:52:06.623Z,38.03
2019-02-07T02:54:36.589Z,36.50
2019-02-07T02:57:04.666Z,34.47
2019-02-07T02:59:33.170Z,35.53
2019-02-07T03:02:09.749Z,40.13
2019-02-07T03:04:39.458Z,40.53
2019-02-07T03:07:11.823Z,40.33
2019-02-07T03:09:47.330Z,38.27
2019-02-07T03:12:19.710Z,31.33
2019-02-07T03:15:07.559Z,38.60
2019-02-07T03:17:40.040Z,35.43
2019-02-07T03:20:15.770Z,37.43
2019-02-07T03:22:51.227Z,30.73
2019-02-07T03:25:39.475Z,35.73
2019-02-07T03:28:12.202Z,39.73
2019-02-07T03:30:50.864Z,37.43
2019-02-07T03:33:23.215Z,33.87
2019-02-07T03:35:55.852Z,32.73
2019-02-07T03:38:26.526Z,35.27
2019-02-07T03:41:02.346Z,38.50
2019-02-07T03:43:35.266Z,34.13
2019-02-07T03:46:05.223Z,36.13
2019-02-07T03:48:41.862Z,36.37
2019-02-07T03:51:17.910Z,36.20
2019-02-07T03:54:03.941Z,36.97
2019-02-07T03:56:36.430Z,36.27
2019-02-07T03:59:22.306Z,33.37
2019-02-07T04:01:58.063Z,40.77
2019-02-07T04:04:30.699Z,39.13
2019-02-07T04:07:00.408Z,40.30
2019-02-07T04:09:30.568Z,40.70
2019-02-07T04:12:16.467Z,37.73
2019-02-07T04:14:46.181Z,45.13
2019-02-07T04:17:21.707Z,39.43
2019-02-07T04:20:07.866Z,39.37
2019-02-07T04:22:43.551Z,40.20
2019-02-07T04:25:25.515Z,38.57
2019-02-07T04:27:55.262Z,39.20
2019-02-07T04:30:24.950Z,35.53
2019-02-07T04:33:11.145Z,39.03
2019-02-07T04:35:40.839Z,34.00
2019-02-07T04:38:19.498Z,39.03
2019-02-07T04:40:57.672Z,36.07
2019-02-07T04:43:44.110Z,36.97
2019-02-07T04:46:14.182Z,41.50
2019-02-07T04:48:56.007Z,45.00
2019-02-07T04:51:38.425Z,39.77
2019-02-07T04:54:26.156Z,36.90
2019-02-07T04:56:58.607Z,36.90
2019-02-07T04:59:28.294Z,38.23
2019-02-07T05:02:06.880Z,39.53
2019-02-07T05:04:42.926Z,37.50
2019-02-07T05:07:12.626Z,37.07
2019-02-07T05:09:44.970Z,36.50
2019-02-07T05:12:15.648Z,40.47
2019-02-07T05:14:51.160Z,39.73
2019-02-07T05:17:26.418Z,38.40
2019-02-07T05:20:07.902Z,38.43
2019-02-07T05:22:43.394Z,41.33
2019-02-07T05:25:28.852Z,36.93
2019-02-07T05:28:04.518Z,48.03
2019-02-07T05:30:36.733Z,39.07
2019-02-07T05:33:15.158Z,37.80
2019-02-07T05:35:44.908Z,43.13
2019-02-07T05:41:24.580Z,38.13
2019-02-07T05:44:03.218Z,37.93
2019-02-07T05:49:20.540Z,38.60
2019-02-07T05:51:59.416Z,38.50
2019-02-07T05:54:29.116Z,39.27
2019-02-07T05:57:01.638Z,35.60
2019-02-07T05:59:31.330Z,37.27
2019-02-07T06:02:01.429Z,41.13
2019-02-07T06:04:31.162Z,39.07
2019-02-07T06:07:06.522Z,36.53
2019-02-07T06:09:36.331Z,40.60
2019-02-07T06:12:06.027Z,34.57
2019-02-07T06:14:35.720Z,39.63
2019-02-07T06:17:14.630Z,38.58
2019-02-07T06:19:44.351Z,32.37
2019-02-07T06:22:14.039Z,37.87
2019-02-07T06:25:01.883Z,37.90
2019-02-07T06:27:37.105Z,39.40
2019-02-07T06:30:17.054Z,42.73
2019-02-07T06:32:49.581Z,37.57
2019-02-07T06:35:19.628Z,43.20
2019-02-07T06:38:04.791Z,37.08
2019-02-07T06:40:50.654Z,39.60
2019-02-07T06:43:23.870Z,38.50
2019-02-07T06:45:53.579Z,37.13
2019-02-07T06:48:39.854Z,37.03
2019-02-07T06:51:26.641Z,34.83
2019-02-07T06:53:59.284Z,41.60
2019-02-07T06:56:31.516Z,42.30
2019-02-07T06:59:03.911Z,41.37
2019-02-07T07:01:33.614Z,41.80
2019-02-07T07:04:21.459Z,38.77
2019-02-07T07:07:02.855Z,39.30
2019-02-07T07:09:44.739Z,37.50
2019-02-07T07:12:23.491Z,47.97
2019-02-07T07:15:05.334Z,41.30
2019-02-07T07:17:35.034Z,38.90
2019-02-07T07:20:18.225Z,44.53
2019-02-07T07:23:04.147Z,41.80
2019-02-07T07:25:37.538Z,43.23
2019-02-07T07:28:16.482Z,41.73
2019-02-07T07:30:48.950Z,42.17
2019-02-07T07:33:36.880Z,45.47
2019-02-07T07:36:18.804Z,37.90
2019-02-07T07:39:04.806Z,41.93
2019-02-07T07:41:40.182Z,45.90
2019-02-07T07:44:25.086Z,47.77
2019-02-07T07:47:00.261Z,45.43
2019-02-07T07:49:32.763Z,44.70
2019-02-07T07:52:04.937Z,45.00
2019-02-07T07:54:52.815Z,39.97
2019-02-07T07:57:28.602Z,39.23
2019-02-07T08:00:18.995Z,42.63
2019-02-07T08:02:53.730Z,44.50
2019-02-07T08:05:29.283Z,46.73
2019-02-07T08:07:58.963Z,43.60
2019-02-07T08:10:28.940Z,40.00
2019-02-07T08:13:07.749Z,46.10
2019-02-07T08:15:40.178Z,34.83
2019-02-07T08:18:18.706Z,40.08
2019-02-07T08:20:48.675Z,41.97
2019-02-07T08:23:18.403Z,38.63
2019-02-07T08:25:48.095Z,37.90
2019-02-07T08:28:26.250Z,45.63
2019-02-07T08:31:13.262Z,45.83
2019-02-07T08:33:51.638Z,41.03
2019-02-07T08:36:36.694Z,40.07
2019-02-07T08:39:13.466Z,45.67
2019-02-07T08:41:52.350Z,46.33
2019-02-07T08:44:28.170Z,45.83
2019-02-07T08:47:07.166Z,44.23
2019-02-07T08:49:46.162Z,44.90
2019-02-07T08:52:19.944Z,47.50
2019-02-07T08:54:49.809Z,47.47
2019-02-07T08:57:22.274Z,45.43
2019-02-07T09:00:08.516Z,49.37
2019-02-07T09:02:56.094Z,45.20
2019-02-07T09:05:34.599Z,45.33
2019-02-07T09:08:10.538Z,43.33
2019-02-07T09:10:43.158Z,45.50
2019-02-07T09:13:28.926Z,46.70
2019-02-07T09:15:59.291Z,52.27
2019-02-07T09:18:31.752Z,48.73
2019-02-07T09:21:01.474Z,46.10
2019-02-07T09:23:46.246Z,48.63
2019-02-07T09:26:18.674Z,55.33
2019-02-07T09:28:54.026Z,47.07
2019-02-07T09:31:35.867Z,52.53
2019-02-07T09:34:08.218Z,53.83
2019-02-07T09:36:56.061Z,52.53
2019-02-07T09:39:25.768Z,50.63
2019-02-07T09:42:10.468Z,53.68
2019-02-07T09:44:56.726Z,51.60
2019-02-07T09:47:26.444Z,45.80
2019-02-07T09:49:59.199Z,49.47
2019-02-07T09:52:37.862Z,52.38
2019-02-07T09:55:09.827Z,56.53
2019-02-07T09:57:39.569Z,53.43
2019-02-07T10:00:25.758Z,53.95
2019-02-07T10:03:12.028Z,49.48
2019-02-07T10:05:41.755Z,51.63
2019-02-07T10:08:30.058Z,54.43
2019-02-07T10:10:59.930Z,45.63
2019-02-07T10:13:30.280Z,50.52
2019-02-07T10:16:06.104Z,47.97
2019-02-07T10:18:38.742Z,49.33
2019-02-07T10:21:23.451Z,49.30
2019-02-07T10:23:53.415Z,48.23
2019-02-07T10:26:41.158Z,55.00
2019-02-07T10:29:22.575Z,52.67
2019-02-07T10:31:58.193Z,50.20
2019-02-07T10:34:44.262Z,57.60
2019-02-07T10:37:30.159Z,51.67
2019-02-07T10:40:05.761Z,55.37
2019-02-07T10:42:44.295Z,56.33
2019-02-07T10:45:16.997Z,47.13
2019-02-07T10:47:55.748Z,51.50
2019-02-07T10:50:34.548Z,50.63
2019-02-07T10:53:13.227Z,51.87
2019-02-07T10:55:43.327Z,49.17
2019-02-07T10:58:21.855Z,50.40
2019-02-07T11:01:06.715Z,55.37
2019-02-07T11:03:39.247Z,49.27
2019-02-07T11:06:25.054Z,49.47
2019-02-07T11:08:54.750Z,46.43
2019-02-07T11:11:24.462Z,54.17
2019-02-07T11:13:57.318Z,51.63
2019-02-07T11:16:33.770Z,51.90
2019-02-07T11:19:20.700Z,53.83
2019-02-07T11:21:51.341Z,50.17
2019-02-07T11:24:37.218Z,50.97
2019-02-07T11:27:12.806Z,49.10
2019-02-07T11:29:44.907Z,55.85
2019-02-07T11:32:20.504Z,59.93
2019-02-07T11:34:50.203Z,50.83
2019-02-07T11:37:22.773Z,51.60
2019-02-07T11:39:55.410Z,49.67
2019-02-07T11:42:43.043Z,49.40
2019-02-07T11:45:13.583Z,48.13
2019-02-07T11:47:43.266Z,53.67
2019-02-07T11:50:15.742Z,51.90
2019-02-07T11:52:48.174Z,52.40
2019-02-07T11:55:17.945Z,51.37
2019-02-07T11:58:05.250Z,54.53
2019-02-07T12:00:37.638Z,46.53
2019-02-07T12:03:13.060Z,50.73
2019-02-07T12:05:43.039Z,54.43
2019-02-07T12:08:30.150Z,53.40
2019-02-07T12:11:02.910Z,55.33
2019-02-07T12:13:41.831Z,55.57
2019-02-07T12:16:20.187Z,47.40
2019-02-07T12:18:50.158Z,47.67
2019-02-07T12:21:28.819Z,50.27
2019-02-07T12:24:17.026Z,55.53
2019-02-07T12:26:46.718Z,50.47
2019-02-07T12:29:16.414Z,52.93
2019-02-07T12:32:02.610Z,43.03
2019-02-07T12:34:47.159Z,47.00
2019-02-07T12:37:34.710Z,50.90
2019-02-07T12:40:11.499Z,54.43
2019-02-07T12:42:41.174Z,55.23
2019-02-07T12:45:19.891Z,54.47
2019-02-07T12:48:06.120Z,47.43
2019-02-07T12:50:52.602Z,50.97
2019-02-07T12:53:22.309Z,49.60
2019-02-07T12:56:08.107Z,45.40
2019-02-07T12:59:13.453Z,48.07
2019-02-07T13:02:00.022Z,53.47
2019-02-07T13:04:41.766Z,46.57
2019-02-07T13:07:11.498Z,48.27
2019-02-07T13:09:57.392Z,50.27
2019-02-07T13:12:29.851Z,47.27
2019-02-07T13:14:59.550Z,53.30
2019-02-07T13:17:29.348Z,67.97
2019-02-07T13:20:07.833Z,57.90
2019-02-07T13:22:53.711Z,50.87
2019-02-07T13:25:29.358Z,53.83
2019-02-07T13:28:11.069Z,57.13
2019-02-07T13:30:46.443Z,57.80
2019-02-07T13:33:18.869Z,53.43
2019-02-07T13:35:48.621Z,55.80
2019-02-07T13:38:34.543Z,56.33
2019-02-07T13:41:06.957Z,56.50
2019-02-07T13:43:53.346Z,57.07
2019-02-07T13:46:25.581Z,55.47
2019-02-07T13:49:26.924Z,61.87
2019-02-07T13:52:22.286Z,52.20
2019-02-07T13:54:55.036Z,52.90
2019-02-07T13:57:36.771Z,54.77
2019-02-07T14:00:24.167Z,60.80
2019-02-07T14:03:03.086Z,54.20
2019-02-07T14:05:44.552Z,55.00
2019-02-07T14:08:38.237Z,59.63
2019-02-07T14:11:16.947Z,59.57
2019-02-07T14:13:46.678Z,58.97
2019-02-07T14:16:17.697Z,62.57
2019-02-07T14:18:49.962Z,101.30
2019-02-07T14:21:28.642Z,104.07
2019-02-07T14:23:58.350Z,61.50
2019-02-07T14:26:28.064Z,57.70
2019-02-07T14:29:10.316Z,62.70
2019-02-07T14:31:56.324Z,60.03
2019-02-07T14:34:26.038Z,61.63
2019-02-07T14:36:55.727Z,61.57
2019-02-07T14:39:31.498Z,67.10
2019-02-07T14:42:03.849Z,59.20
2019-02-07T14:44:33.542Z,62.43
2019-02-07T14:47:01.795Z,61.87
2019-02-07T14:49:29.846Z,59.00
2019-02-07T14:51:58.097Z,66.23
2019-02-07T14:54:26.150Z,62.80
2019-02-07T14:56:54.221Z,62.23
2019-02-07T14:59:22.284Z,64.83
2019-02-07T15:01:50.340Z,56.80
2019-02-07T15:04:18.415Z,61.90
2019-02-07T15:06:46.483Z,57.17
2019-02-07T15:09:15.003Z,58.80
2019-02-07T15:11:43.222Z,57.83
2019-02-07T15:14:11.355Z,53.27
2019-02-07T15:16:39.569Z,56.17
2019-02-07T15:19:07.661Z,53.83
2019-02-07T15:21:35.720Z,55.80
2019-02-07T15:24:04.178Z,59.53
2019-02-07T15:26:32.239Z,51.57
2019-02-07T15:29:00.302Z,58.77
2019-02-07T15:31:28.413Z,58.50
2019-02-07T15:33:56.466Z,55.30
2019-02-07T15:36:24.542Z,56.97
2019-02-07T15:38:52.598Z,50.13
2019-02-07T15:41:20.936Z,51.77
2019-02-07T15:43:48.999Z,47.40
2019-02-07T15:46:17.072Z,51.93
2019-02-07T15:48:45.294Z,50.53
2019-02-07T15:51:13.881Z,50.23
2019-02-07T15:53:41.919Z,49.20
2019-02-07T15:56:09.980Z,44.23
2019-02-07T15:58:56.908Z,47.27
2019-02-07T16:01:26.894Z,46.30
2019-02-07T16:03:56.687Z,53.43
2019-02-07T16:06:24.777Z,47.10
2019-02-07T16:08:52.834Z,46.63
2019-02-07T16:11:20.910Z,48.20
2019-02-07T16:13:48.988Z,47.93
2019-02-07T16:16:17.043Z,41.77
2019-02-07T16:18:45.128Z,44.00
2019-02-07T16:21:13.646Z,49.90
2019-02-07T16:23:41.730Z,43.53
2019-02-07T16:26:10.551Z,43.67
2019-02-07T16:28:38.599Z,47.90
2019-02-07T16:31:06.913Z,42.27
2019-02-07T16:33:35.092Z,39.83
2019-02-07T16:36:03.439Z,44.33
2019-02-07T16:38:31.563Z,49.97
2019-02-07T16:40:59.697Z,44.77
2019-02-07T16:43:27.890Z,43.17
2019-02-07T16:45:55.959Z,38.10
2019-02-07T16:48:24.102Z,42.17
2019-02-07T16:50:59.970Z,43.17
2019-02-07T16:53:22.484Z,43.80
2019-02-07T16:55:50.627Z,40.87
2019-02-07T16:58:19.006Z,46.17
2019-02-07T17:00:47.049Z,42.03
2019-02-07T17:03:15.127Z,40.63
2019-02-07T17:05:43.195Z,43.73
2019-02-07T17:08:11.423Z,43.13
2019-02-07T17:10:40.062Z,43.50
2019-02-07T17:13:09.492Z,45.83
2019-02-07T17:15:37.938Z,40.83
2019-02-07T17:18:06.167Z,39.43
2019-02-07T17:20:34.362Z,39.83
2019-02-07T17:23:02.434Z,38.20
2019-02-07T17:25:30.755Z,39.40
2019-02-07T17:27:58.898Z,43.70
2019-02-07T17:30:26.953Z,38.93
2019-02-07T17:32:55.021Z,40.23
2019-02-07T17:35:23.347Z,46.73
2019-02-07T17:37:51.462Z,43.87
2019-02-07T17:40:23.046Z,48.33
2019-02-07T17:42:51.110Z,53.13
2019-02-07T17:45:20.877Z,44.13
2019-02-07T17:47:49.187Z,42.40
2019-02-07T17:50:18.703Z,50.20
2019-02-07T17:52:46.763Z,45.23
2019-02-07T17:55:15.935Z,48.40
2019-02-07T17:57:43.994Z,53.80
2019-02-07T18:00:18.188Z,48.57
2019-02-07T18:02:46.412Z,45.83
2019-02-07T18:05:14.547Z,50.27
2019-02-07T18:07:42.610Z,50.53
2019-02-07T18:10:11.364Z,44.57
2019-02-07T18:12:39.430Z,51.63
2019-02-07T18:15:08.450Z,52.87
2019-02-07T18:17:36.504Z,51.63
2019-02-07T18:20:06.179Z,57.77
2019-02-07T18:22:34.282Z,57.57
2019-02-07T18:25:02.392Z,55.93
2019-02-07T18:27:30.448Z,56.53
2019-02-07T18:29:58.498Z,53.00
2019-02-07T18:32:26.555Z,52.73
2019-02-07T18:34:54.619Z,60.00
2019-02-07T18:37:22.726Z,51.47
2019-02-07T18:39:50.803Z,50.70
2019-02-07T18:42:18.846Z,57.40
2019-02-07T18:44:46.898Z,50.93
2019-02-07T18:47:14.962Z,49.63
2019-02-07T18:49:43.015Z,46.13
2019-02-07T18:52:12.176Z,52.07
2019-02-07T18:54:40.386Z,51.20
2019-02-07T18:57:08.442Z,48.60
2019-02-07T18:59:36.510Z,43.10
2019-02-07T19:02:04.637Z,45.87
2019-02-07T19:04:32.689Z,43.67
2019-02-07T19:07:00.738Z,46.33
2019-02-07T19:09:29.076Z,44.83
2019-02-07T19:11:57.145Z,43.00
2019-02-07T19:14:25.194Z,42.30
2019-02-07T19:16:53.251Z,45.00
2019-02-07T19:19:21.315Z,38.23
2019-02-07T19:21:56.856Z,39.23
2019-02-07T19:24:19.130Z,38.60
2019-02-07T19:26:47.375Z,33.13
2019-02-07T19:29:15.497Z,35.00
2019-02-07T19:31:43.552Z,38.00
2019-02-07T19:34:11.683Z,37.23
2019-02-07T19:36:39.816Z,39.23
2019-02-07T19:39:08.558Z,34.37
2019-02-07T19:41:36.639Z,28.97
2019-02-07T19:44:05.043Z,29.27
2019-02-07T19:46:33.102Z,34.87
2019-02-07T19:49:01.170Z,31.70
2019-02-07T19:51:30.489Z,31.90
2019-02-07T19:53:58.626Z,30.53
2019-02-07T19:56:27.650Z,34.23
2019-02-07T19:58:55.746Z,37.67
2019-02-07T20:01:23.982Z,38.43
2019-02-07T20:03:52.042Z,28.97
2019-02-07T20:06:20.094Z,33.27
2019-02-07T20:08:48.190Z,29.83
2019-02-07T20:11:16.251Z,33.30
2019-02-07T20:13:44.315Z,33.37
2019-02-07T20:16:12.377Z,39.73
2019-02-07T20:18:40.719Z,38.40
2019-02-07T20:21:08.806Z,35.67
2019-02-07T20:23:39.564Z,37.23
2019-02-07T20:26:06.630Z,35.13
2019-02-07T20:28:34.742Z,34.63
2019-02-07T20:31:02.798Z,34.80
2019-02-07T20:33:30.842Z,36.57
2019-02-07T20:35:58.954Z,31.87
2019-02-07T20:38:27.170Z,33.07
2019-02-07T20:40:55.230Z,37.67
2019-02-07T20:43:23.280Z,35.30
2019-02-07T20:45:51.337Z,32.50
2019-02-07T20:48:19.402Z,34.27
2019-02-07T20:50:47.480Z,35.33
2019-02-07T20:53:16.698Z,35.60
2019-02-07T20:55:45.030Z,33.30
2019-02-07T20:58:13.078Z,33.10
2019-02-07T21:00:41.302Z,34.43
2019-02-07T21:03:09.382Z,31.53
2019-02-07T21:05:37.500Z,32.37
2019-02-07T21:08:05.630Z,35.00
2019-02-07T21:10:34.647Z,34.40
2019-02-07T21:13:02.770Z,31.63
2019-02-07T21:15:30.823Z,26.47
2019-02-07T21:17:58.950Z,32.53
2019-02-07T21:20:27.906Z,31.87
2019-02-07T21:22:56.449Z,36.77
2019-02-07T21:25:26.046Z,32.53
2019-02-07T21:27:54.729Z,31.67
2019-02-07T21:30:24.653Z,30.70
2019-02-07T21:32:53.075Z,32.47
2019-02-07T21:35:21.394Z,31.87
2019-02-07T21:37:49.450Z,29.03
2019-02-07T21:40:24.939Z,32.07
2019-02-07T21:42:54.062Z,34.17
2019-02-07T21:45:22.128Z,36.50
2019-02-07T21:47:50.552Z,29.10
2019-02-07T21:50:22.454Z,30.47
2019-02-07T21:52:50.598Z,30.13
2019-02-07T21:55:19.638Z,29.43
2019-02-07T21:57:47.686Z,31.43
2019-02-07T22:00:17.370Z,30.57
2019-02-07T22:02:45.447Z,26.83
2019-02-07T22:05:13.505Z,31.67
2019-02-07T22:07:41.578Z,34.00
2019-02-07T22:10:11.414Z,29.13
2019-02-07T22:12:39.535Z,30.20
2019-02-07T22:15:12.095Z,27.23
2019-02-07T22:17:40.175Z,35.57
2019-02-07T22:20:09.934Z,31.07
2019-02-07T22:22:38.000Z,25.03
2019-02-07T22:25:06.214Z,31.33
2019-02-07T22:27:34.898Z,30.37
2019-02-07T22:30:04.536Z,28.23
2019-02-07T22:32:32.593Z,29.97
2019-02-07T22:35:00.926Z,31.63
2019-02-07T22:37:28.986Z,27.67
2019-02-07T22:39:57.102Z,29.33
2019-02-07T22:42:25.170Z,26.53
2019-02-07T22:44:53.217Z,35.03
2019-02-07T22:47:21.275Z,28.23
2019-02-07T22:49:49.350Z,27.73
2019-02-07T22:52:20.532Z,29.67
2019-02-07T22:54:48.618Z,26.30
2019-02-07T22:57:16.662Z,29.43
2019-02-07T22:59:44.716Z,24.80
2019-02-07T23:02:12.773Z,28.70
2019-02-07T23:04:40.826Z,26.33
2019-02-07T23:07:08.926Z,32.83
2019-02-07T23:09:37.261Z,28.03
2019-02-07T23:12:05.778Z,26.90
2019-02-07T23:14:33.839Z,23.27
2019-02-07T23:17:01.890Z,25.57
2019-02-07T23:19:29.930Z,23.20
2019-02-07T23:21:58.017Z,28.83
2019-02-07T23:24:26.071Z,26.43
2019-02-07T23:26:54.129Z,29.93
2019-02-07T23:29:22.181Z,25.43
2019-02-07T23:31:50.234Z,28.50
2019-02-07T23:34:19.118Z,24.87
2019-02-07T23:36:47.294Z,24.50
2019-02-07T23:39:15.360Z,21.80
2019-02-07T23:41:43.448Z,27.53
2019-02-07T23:44:11.549Z,27.40
2019-02-07T23:46:39.691Z,25.20
2019-02-07T23:49:07.787Z,21.40
2019-02-07T23:51:36.310Z,20.90
2019-02-07T23:54:04.738Z,21.57
2019-02-07T23:56:32.801Z,26.57
2019-02-07T23:59:00.868Z,24.87
